Time;durP1;ratioP1;P1;durP2;ratioP2;P2;SDS_P1;SDS_P2;PMS_P1;PMS_P2;Temp;Humidity;BMP_temperature;BMP_pressure;BME280_temperature;BME280_humidity;BME280_pressure;Samples;Min_cycle;Max_cycle;Signal;HPM_P1;HPM_P2
2022/05/26 00:01:05;;;;;;;4.88;2.13;;;;;;;;;;5081262;28;20028;-65
2022/05/26 00:03:32;;;;;;;2.75;2.30;;;;;;;;;;5080093;28;20043;-66
2022/05/26 00:05:59;;;;;;;3.08;2.08;;;;;;;;;;5081095;28;20105;-66
2022/05/26 00:08:25;;;;;;;3.95;2.47;;;;;;;;;;5081116;28;20121;-66
2022/05/26 00:10:50;;;;;;;3.50;2.20;;;;;;;;;;5080873;28;20039;-66
2022/05/26 00:13:16;;;;;;;3.08;2.20;;;;;;;;;;5080703;28;20039;-65
2022/05/26 00:15:41;;;;;;;6.30;2.33;;;;;;;;;;5080232;28;20612;-66
2022/05/26 00:18:07;;;;;;;3.28;2.20;;;;;;;;;;5081299;28;21197;-64
2022/05/26 00:20:33;;;;;;;4.13;2.42;;;;;;;;;;5081205;28;20581;-66
2022/05/26 00:22:58;;;;;;;2.75;2.00;;;;;;;;;;5080369;28;20802;-65
2022/05/26 00:25:23;;;;;;;2.75;2.13;;;;;;;;;;5080330;28;20035;-65
2022/05/26 00:27:49;;;;;;;1.92;1.83;;;;;;;;;;5080850;28;20046;-65
2022/05/26 00:30:14;;;;;;;2.28;1.83;;;;;;;;;;5080953;28;20035;-66
2022/05/26 00:32:40;;;;;;;2.00;1.85;;;;;;;;;;5080448;28;20921;-64
2022/05/26 00:35:06;;;;;;;2.03;1.92;;;;;;;;;;5080983;28;20055;-67
2022/05/26 00:37:31;;;;;;;2.17;1.98;;;;;;;;;;5079733;28;20035;-66
2022/05/26 00:39:57;;;;;;;2.75;1.98;;;;;;;;;;5080986;28;20092;-66
2022/05/26 00:42:22;;;;;;;7.72;2.03;;;;;;;;;;5080209;28;20036;-66
2022/05/26 00:44:48;;;;;;;1.60;1.50;;;;;;;;;;5081168;28;20035;-66
2022/05/26 00:47:19;;;;;;;2.83;2.00;;;;;;;;;;5079489;28;20401;-65
2022/05/26 00:49:51;;;;;;;1.83;1.73;;;;;;;;;;5080942;28;20071;-66
2022/05/26 00:52:21;;;;;;;;;;;;;;;;;;5080929;28;20143;-67
2022/05/26 00:54:50;;;;;;;3.17;2.10;;;;;;;;;;5083777;28;19922;-66
2022/05/26 00:57:28;;;;;;;16.52;2.67;;;;;;;;;;5084680;28;20054;-66
2022/05/26 01:00:00;;;;;;;19.05;3.47;;;;;;;;;;5083193;28;20040;-65
2022/05/26 01:02:32;;;;;;;3.03;2.63;;;;;;;;;;5084179;28;20957;-65
2022/05/26 01:05:01;;;;;;;2.80;2.33;;;;;;;;;;5085161;28;20146;-65
2022/05/26 01:07:32;;;;;;;4.80;2.40;;;;;;;;;;5084864;28;20040;-67
2022/05/26 01:09:58;;;;;;;2.97;2.58;;;;;;;;;;5078603;28;20046;-66
2022/05/26 01:12:23;;;;;;;2.55;2.35;;;;;;;;;;5082807;28;20024;-66
2022/05/26 01:14:56;;;;;;;3.20;2.90;;;;;;;;;;5084969;28;20048;-66
2022/05/26 01:17:36;;;;;;;3.60;3.10;;;;;;;;;;5084605;28;20912;-65
2022/05/26 01:20:11;;;;;;;3.15;2.85;;;;;;;;;;5085555;28;20051;-65
2022/05/26 01:22:49;;;;;;;3.03;2.50;;;;;;;;;;5065905;28;20032;-65
2022/05/26 01:25:43;;;;;;;4.50;2.35;;;;;;;;;;5084357;28;20424;-67
2022/05/26 01:28:30;;;;;;;2.58;2.15;;;;;;;;;;5084431;28;20051;-66
2022/05/26 01:30:58;;;;;;;1.83;1.73;;;;;;;;;;5083935;28;20123;-64
2022/05/26 01:33:23;;;;;;;1.65;1.50;;;;;;;;;;5064599;28;20052;-66
2022/05/26 01:36:18;;;;;;;1.90;1.80;;;;;;;;;;5083964;28;20089;-66
2022/05/26 01:39:01;;;;;;;6.65;1.77;;;;;;;;;;5036534;28;20044;-65
2022/05/26 01:41:55;;;;;;;2.97;1.35;;;;;;;;;;5083888;28;20032;-66
2022/05/26 01:44:31;;;;;;;1.95;1.75;;;;;;;;;;5082000;28;20054;-65
2022/05/26 01:47:00;;;;;;;1.73;1.63;;;;;;;;;;5083953;28;20105;-66
2022/05/26 01:49:38;;;;;;;2.28;2.08;;;;;;;;;;5083451;28;20032;-65
2022/05/26 01:52:14;;;;;;;4.13;2.05;;;;;;;;;;5083869;28;20032;-66
2022/05/26 01:54:53;;;;;;;2.72;2.22;;;;;;;;;;5082468;28;20089;-66
2022/05/26 01:57:37;;;;;;;4.05;2.00;;;;;;;;;;5083942;28;20061;-67
2022/05/26 02:00:10;;;;;;;2.33;2.13;;;;;;;;;;5083455;28;20510;-66
2022/05/26 02:03:01;;;;;;;3.05;1.48;;;;;;;;;;5083599;28;20484;-67
2022/05/26 02:05:31;;;;;;;1.77;1.67;;;;;;;;;;5055481;28;21074;-65
2022/05/26 02:08:08;;;;;;;1.95;1.70;;;;;;;;;;5083600;28;20064;-65
2022/05/26 02:10:42;;;;;;;4.63;1.88;;;;;;;;;;5082127;28;20071;-66
2022/05/26 02:13:12;;;;;;;1.95;1.70;;;;;;;;;;5082933;28;20032;-66
2022/05/26 02:15:46;;;;;;;2.25;1.80;;;;;;;;;;5082188;28;20151;-66
2022/05/26 02:18:27;;;;;;;2.38;1.98;;;;;;;;;;5083072;28;20040;-66
2022/05/26 02:20:58;;;;;;;1.73;1.63;;;;;;;;;;5083230;28;20070;-66
2022/05/26 02:23:35;;;;;;;2.08;1.60;;;;;;;;;;5083060;28;20040;-65
2022/05/26 02:26:02;;;;;;;2.90;1.65;;;;;;;;;;5082858;28;20118;-66
2022/05/26 02:28:28;;;;;;;2.53;1.75;;;;;;;;;;5082331;28;20036;-65
2022/05/26 02:30:55;;;;;;;4.28;1.70;;;;;;;;;;5083252;28;20020;-65
2022/05/26 02:33:22;;;;;;;2.03;1.77;;;;;;;;;;5082272;28;20111;-65
2022/05/26 02:35:51;;;;;;;3.97;2.13;;;;;;;;;;5083023;28;20111;-65
2022/05/26 02:38:22;;;;;;;2.60;1.80;;;;;;;;;;5081970;28;20048;-64
2022/05/26 02:40:49;;;;;;;2.60;2.00;;;;;;;;;;5082710;28;20043;-66
2022/05/26 02:43:29;;;;;;;3.78;2.05;;;;;;;;;;5082468;28;20401;-66
2022/05/26 02:46:19;;;;;;;2.05;1.95;;;;;;;;;;5082374;28;20036;-66
2022/05/26 02:49:15;;;;;;;5.13;2.03;;;;;;;;;;5081641;28;20046;-65
2022/05/26 02:52:10;;;;;;;4.15;1.90;;;;;;;;;;5082726;28;20032;-66
2022/05/26 02:55:06;;;;;;;3.80;2.00;;;;;;;;;;5082065;28;20424;-65
2022/05/26 02:57:44;;;;;;;2.65;2.03;;;;;;;;;;5082633;28;20494;-66
2022/05/26 03:00:13;;;;;;;2.10;2.00;;;;;;;;;;5081233;28;20044;-65
2022/05/26 03:02:59;;;;;;;2.10;1.85;;;;;;;;;;5081692;28;20040;-64
2022/05/26 03:05:30;;;;;;;3.33;2.45;;;;;;;;;;5082624;28;20493;-65
2022/05/26 03:08:00;;;;;;;4.65;2.10;;;;;;;;;;5082533;28;20036;-65
2022/05/26 03:10:31;;;;;;;2.00;1.90;;;;;;;;;;5079143;28;20054;-65
2022/05/26 03:13:01;;;;;;;3.28;2.00;;;;;;;;;;5081165;28;20400;-65
2022/05/26 03:15:28;;;;;;;2.85;1.98;;;;;;;;;;5082049;28;20116;-66
2022/05/26 03:17:54;;;;;;;2.00;1.90;;;;;;;;;;5064021;28;20050;-66
2022/05/26 03:20:20;;;;;;;5.72;1.90;;;;;;;;;;5081750;28;20036;-65
2022/05/26 03:22:45;;;;;;;6.05;2.00;;;;;;;;;;5080924;28;20063;-66
2022/05/26 03:25:11;;;;;;;5.82;2.13;;;;;;;;;;5079398;28;20039;-66
2022/05/26 03:27:36;;;;;;;4.38;2.30;;;;;;;;;;5081237;28;20028;-65
2022/05/26 03:30:03;;;;;;;2.40;1.77;;;;;;;;;;5081605;28;20412;-66
2022/05/26 03:32:29;;;;;;;2.90;2.10;;;;;;;;;;5080630;28;20475;-66
2022/05/26 03:43:08;;;;;;;3.10;1.80;;;;;;;;;;5080160;28;20071;-65
2022/05/26 03:45:35;;;;;;;2.42;1.90;;;;;;;;;;5081221;28;20097;-65
2022/05/26 03:48:02;;;;;;;2.05;1.83;;;;;;;;;;5063278;28;20032;-65
2022/05/26 03:50:28;;;;;;;2.40;2.20;;;;;;;;;;5081412;28;20031;-66
2022/05/26 03:52:53;;;;;;;2.25;1.75;;;;;;;;;;5080962;28;20400;-66
2022/05/26 03:55:20;;;;;;;2.08;1.98;;;;;;;;;;5080546;28;21037;-66
2022/05/26 03:57:46;;;;;;;3.08;2.20;;;;;;;;;;5081595;28;20028;-65
2022/05/26 04:00:14;;;;;;;5.43;2.30;;;;;;;;;;5081045;28;20450;-65
2022/05/26 04:02:40;;;;;;;4.82;3.00;;;;;;;;;;5080680;28;20153;-68
2022/05/26 04:05:07;;;;;;;2.92;2.00;;;;;;;;;;5080885;28;20068;-68
2022/05/26 04:07:34;;;;;;;2.67;1.90;;;;;;;;;;5080956;28;20047;-66
2022/05/26 04:10:02;;;;;;;4.00;2.10;;;;;;;;;;5063050;28;20040;-68
2022/05/26 04:12:27;;;;;;;4.53;1.95;;;;;;;;;;5081011;28;20055;-67
2022/05/26 04:14:53;;;;;;;2.40;2.17;;;;;;;;;;5081192;28;20551;-67
2022/05/26 04:17:18;;;;;;;4.30;2.35;;;;;;;;;;5080443;28;20166;-67
2022/05/26 04:19:44;;;;;;;2.47;1.80;;;;;;;;;;5080881;28;20044;-66
2022/05/26 04:22:18;;;;;;;8.68;2.10;;;;;;;;;;5081406;28;20044;-66
2022/05/26 04:24:48;;;;;;;6.25;1.98;;;;;;;;;;5080481;28;20130;-67
2022/05/26 04:27:16;;;;;;;4.25;2.00;;;;;;;;;;5079955;28;20456;-67
2022/05/26 04:29:42;;;;;;;4.43;2.15;;;;;;;;;;5080357;28;20047;-68
2022/05/26 04:32:08;;;;;;;3.05;1.80;;;;;;;;;;5080591;28;20036;-67
2022/05/26 04:34:33;;;;;;;4.18;1.70;;;;;;;;;;5080384;28;20093;-67
2022/05/26 04:36:59;;;;;;;1.75;1.63;;;;;;;;;;5081079;28;20093;-68
2022/05/26 04:39:25;;;;;;;2.10;1.90;;;;;;;;;;5079751;28;20477;-67
2022/05/26 04:41:50;;;;;;;3.67;1.80;;;;;;;;;;5078131;28;20075;-68
2022/05/26 04:44:17;;;;;;;2.88;1.80;;;;;;;;;;5075837;28;20107;-68
2022/05/26 04:46:43;;;;;;;5.10;1.77;;;;;;;;;;5073285;28;20132;-68
2022/05/26 04:49:09;;;;;;;4.22;1.67;;;;;;;;;;5070199;28;20024;-69
2022/05/26 04:51:36;;;;;;;2.00;1.80;;;;;;;;;;5077847;28;20035;-68
2022/05/26 04:54:03;;;;;;;1.88;1.73;;;;;;;;;;5077766;28;20036;-68
2022/05/26 04:56:29;;;;;;;4.13;1.80;;;;;;;;;;5077477;28;20151;-68
2022/05/26 04:58:55;;;;;;;1.70;1.60;;;;;;;;;;5076957;28;20127;-68
2022/05/26 05:01:20;;;;;;;3.03;1.60;;;;;;;;;;5073464;28;20040;-67
2022/05/26 05:03:47;;;;;;;1.60;1.50;;;;;;;;;;5077120;28;20028;-69
2022/05/26 05:06:14;;;;;;;1.95;1.42;;;;;;;;;;5076299;28;20031;-68
2022/05/26 05:08:44;;;;;;;3.67;1.75;;;;;;;;;;5077709;28;20046;-68
2022/05/26 05:11:11;;;;;;;1.85;1.60;;;;;;;;;;5075073;28;20059;-67
2022/05/26 05:13:38;;;;;;;2.85;1.40;;;;;;;;;;5077428;28;20043;-68
2022/05/26 05:16:20;;;;;;;1.40;1.30;;;;;;;;;;5078954;28;20124;-69
2022/05/26 05:18:46;;;;;;;2.55;1.17;;;;;;;;;;5078233;28;21151;-68
2022/05/26 05:21:15;;;;;;;1.60;1.20;;;;;;;;;;5079560;28;20143;-67
2022/05/26 05:23:46;;;;;;;1.35;1.00;;;;;;;;;;5076198;28;20492;-66
2022/05/26 05:26:16;;;;;;;2.53;1.10;;;;;;;;;;5078833;28;20127;-67
2022/05/26 05:28:47;;;;;;;1.38;1.00;;;;;;;;;;5078817;28;20040;-68
2022/05/26 05:31:27;;;;;;;1.60;1.10;;;;;;;;;;5078517;28;20063;-68
2022/05/26 05:33:57;;;;;;;2.45;1.20;;;;;;;;;;5076907;28;20086;-69
2022/05/26 05:36:28;;;;;;;1.45;1.25;;;;;;;;;;5079025;28;20071;-68
2022/05/26 05:38:54;;;;;;;4.05;1.48;;;;;;;;;;5078431;28;20050;-68
2022/05/26 05:41:20;;;;;;;2.83;1.50;;;;;;;;;;5079800;28;20023;-68
2022/05/26 05:43:47;;;;;;;2.05;1.58;;;;;;;;;;5081839;28;20044;-69
2022/05/26 05:46:14;;;;;;;1.48;1.38;;;;;;;;;;5079674;28;20028;-68
2022/05/26 05:48:45;;;;;;;3.70;1.20;;;;;;;;;;5081731;28;20075;-68
2022/05/26 05:51:14;;;;;;;5.85;1.15;;;;;;;;;;5064366;28;20047;-69
2022/05/26 05:53:40;;;;;;;1.58;1.10;;;;;;;;;;5081308;28;20456;-68
2022/05/26 05:56:05;;;;;;;1.17;0.95;;;;;;;;;;5081980;28;20518;-71
2022/05/26 05:58:31;;;;;;;3.53;1.30;;;;;;;;;;5082530;28;20031;-69
2022/05/26 06:00:57;;;;;;;2.08;1.13;;;;;;;;;;5083046;28;20489;-71
2022/05/26 06:03:23;;;;;;;6.00;1.30;;;;;;;;;;5083102;28;20032;-70
2022/05/26 06:05:49;;;;;;;1.13;1.05;;;;;;;;;;5083178;28;20031;-69
2022/05/26 06:08:14;;;;;;;1.27;1.20;;;;;;;;;;5082497;28;20500;-69
2022/05/26 06:10:40;;;;;;;1.52;1.10;;;;;;;;;;5083378;28;20565;-69
2022/05/26 06:13:05;;;;;;;1.10;1.00;;;;;;;;;;5083005;28;20140;-68
2022/05/26 06:15:32;;;;;;;3.20;1.08;;;;;;;;;;5082702;28;20127;-72
2022/05/26 06:17:58;;;;;;;2.80;1.30;;;;;;;;;;5082067;28;20036;-73
2022/05/26 06:20:23;;;;;;;4.85;1.08;;;;;;;;;;5082706;28;20798;-71
2022/05/26 06:22:49;;;;;;;1.33;1.05;;;;;;;;;;5082808;28;20291;-71
2022/05/26 06:25:20;;;;;;;3.53;0.90;;;;;;;;;;5083312;28;20420;-72
2022/05/26 06:30:30;;;;;;;1.45;0.70;;;;;;;;;;5082200;28;20044;-71
2022/05/26 06:38:32;;;;;;;2.00;1.20;;;;;;;;;;5064609;28;20040;-70
2022/05/26 06:42:05;;;;;;;2.30;0.85;;;;;;;;;;5080625;28;20042;-70
2022/05/26 06:43:43;;;;;;;1.42;1.33;;;;;;;;;;5080931;28;20048;-70
2022/05/26 06:46:09;;;;;;;0.93;0.93;;;;;;;;;;5081676;28;20036;-69
2022/05/26 06:48:34;;;;;;;2.42;0.93;;;;;;;;;;5063489;28;20400;-70
2022/05/26 06:51:00;;;;;;;4.15;1.25;;;;;;;;;;5080133;28;20496;-70
2022/05/26 06:53:25;;;;;;;0.90;0.73;;;;;;;;;;5080927;28;20040;-70
2022/05/26 06:55:51;;;;;;;1.80;0.95;;;;;;;;;;5081619;28;20079;-71
2022/05/26 06:58:16;;;;;;;2.03;1.10;;;;;;;;;;5081727;28;20032;-69
2022/05/26 07:00:43;;;;;;;2.03;0.88;;;;;;;;;;5081215;28;20100;-70
2022/05/26 07:03:08;;;;;;;3.25;0.95;;;;;;;;;;5080219;28;20064;-70
2022/05/26 07:05:37;;;;;;;3.30;1.00;;;;;;;;;;5082313;28;20130;-70
2022/05/26 07:08:03;;;;;;;0.70;0.70;;;;;;;;;;5082354;28;20040;-70
2022/05/26 07:10:30;;;;;;;1.75;0.60;;;;;;;;;;5079847;28;20031;-68
2022/05/26 07:12:55;;;;;;;0.70;0.70;;;;;;;;;;5079675;28;20024;-69
2022/05/26 07:15:21;;;;;;;1.95;0.70;;;;;;;;;;5080036;28;20792;-70
2022/05/26 07:17:48;;;;;;;1.67;0.70;;;;;;;;;;5080680;28;20465;-69
2022/05/26 07:20:14;;;;;;;1.75;0.77;;;;;;;;;;5045225;28;20032;-72
2022/05/26 07:22:40;;;;;;;2.28;0.88;;;;;;;;;;5045371;28;20466;-68
2022/05/26 07:25:06;;;;;;;4.95;1.10;;;;;;;;;;5076887;28;20040;-67
2022/05/26 07:27:32;;;;;;;1.05;0.50;;;;;;;;;;5061426;28;20058;-71
2022/05/26 07:29:57;;;;;;;1.85;0.70;;;;;;;;;;5080521;28;20047;-68
2022/05/26 07:32:23;;;;;;;1.23;0.80;;;;;;;;;;5080256;28;20035;-69
2022/05/26 07:34:48;;;;;;;2.67;0.70;;;;;;;;;;5080302;28;20043;-72
2022/05/26 07:42:42;;;;;;;1.23;0.80;;;;;;;;;;5081787;28;20044;-68
2022/05/26 07:45:08;;;;;;;1.10;0.88;;;;;;;;;;5080541;28;20040;-71
2022/05/26 07:47:34;;;;;;;0.82;0.65;;;;;;;;;;5081450;28;20043;-73
2022/05/26 07:50:00;;;;;;;0.95;0.75;;;;;;;;;;5081457;28;20040;-72
2022/05/26 07:52:25;;;;;;;1.83;0.70;;;;;;;;;;5081341;28;20043;-69
2022/05/26 07:54:51;;;;;;;2.10;0.65;;;;;;;;;;5081005;28;20040;-72
2022/05/26 07:57:26;;;;;;;1.20;0.70;;;;;;;;;;5080702;28;20480;-69
2022/05/26 07:59:52;;;;;;;0.93;0.68;;;;;;;;;;5081248;28;20028;-69
2022/05/26 08:02:18;;;;;;;0.60;0.60;;;;;;;;;;5081466;28;20079;-69
2022/05/26 08:04:44;;;;;;;1.15;0.65;;;;;;;;;;5079927;28;20031;-68
2022/05/26 08:07:10;;;;;;;8.95;0.98;;;;;;;;;;5080667;28;20365;-69
2022/05/26 08:09:40;;;;;;;2.08;0.70;;;;;;;;;;5081128;28;20050;-69
2022/05/26 08:12:07;;;;;;;1.15;0.90;;;;;;;;;;5081039;28;20032;-69
2022/05/26 08:14:33;;;;;;;3.47;0.75;;;;;;;;;;5080584;28;20142;-71
2022/05/26 08:16:59;;;;;;;4.88;0.93;;;;;;;;;;5081410;28;20656;-68
2022/05/26 08:19:25;;;;;;;2.50;0.73;;;;;;;;;;5079984;28;20039;-68
2022/05/26 08:21:50;;;;;;;1.23;1.00;;;;;;;;;;5080988;28;20051;-71
2022/05/26 08:24:19;;;;;;;6.72;0.90;;;;;;;;;;5078385;28;20134;-69
2022/05/26 08:26:46;;;;;;;0.93;0.90;;;;;;;;;;5081031;28;20042;-70
2022/05/26 08:29:11;;;;;;;1.35;0.80;;;;;;;;;;5080586;28;20473;-70
2022/05/26 08:31:36;;;;;;;1.83;0.63;;;;;;;;;;5062537;28;20032;-68
2022/05/26 08:34:02;;;;;;;1.17;0.70;;;;;;;;;;5080373;28;20515;-69
2022/05/26 08:36:28;;;;;;;1.75;0.70;;;;;;;;;;5080683;28;20404;-70
2022/05/26 08:38:55;;;;;;;3.17;0.90;;;;;;;;;;5081284;28;20040;-70
2022/05/26 08:41:28;;;;;;;1.02;0.60;;;;;;;;;;5080117;28;20587;-70
2022/05/26 08:44:11;;;;;;;2.25;0.80;;;;;;;;;;5080604;28;20036;-71
2022/05/26 08:46:50;;;;;;;1.95;0.98;;;;;;;;;;5080865;28;20851;-69
2022/05/26 08:49:24;;;;;;;0.95;0.60;;;;;;;;;;5080904;28;20067;-68
2022/05/26 08:51:56;;;;;;;1.45;0.75;;;;;;;;;;5080311;28;20441;-69
2022/05/26 08:54:21;;;;;;;;;;;;;;;;;;5080733;28;20481;-70
2022/05/26 08:56:47;;;;;;;1.85;0.70;;;;;;;;;;5080681;28;19916;-72
2022/05/26 08:59:15;;;;;;;1.17;0.55;;;;;;;;;;5080556;28;20036;-71
2022/05/26 09:01:43;;;;;;;1.85;0.80;;;;;;;;;;5080765;28;20048;-70
2022/05/26 09:04:10;;;;;;;0.85;0.60;;;;;;;;;;5078817;28;20043;-69
2022/05/26 09:15:05;;;;;;;1.23;0.68;;;;;;;;;;5080278;28;20031;-69
2022/05/26 09:17:31;;;;;;;2.45;0.80;;;;;;;;;;5084082;28;20082;-69
2022/05/26 09:19:57;;;;;;;1.40;1.20;;;;;;;;;;5084292;28;20071;-70
2022/05/26 09:22:27;;;;;;;1.25;0.65;;;;;;;;;;5082929;28;20374;-68
2022/05/26 09:24:54;;;;;;;1.40;0.65;;;;;;;;;;5064658;28;20097;-68
2022/05/26 09:27:25;;;;;;;2.08;0.90;;;;;;;;;;5084353;28;20028;-69
2022/05/26 09:29:51;;;;;;;;;;;;;;;;;;5066456;28;20553;-72
2022/05/26 09:32:18;;;;;;;0.70;0.70;;;;;;;;;;5084162;28;19916;-70
2022/05/26 09:35:02;;;;;;;1.30;0.73;;;;;;;;;;5083418;28;20976;-70
2022/05/26 09:37:49;;;;;;;2.95;0.60;;;;;;;;;;5083195;28;20043;-72
2022/05/26 09:40:35;;;;;;;0.73;0.73;;;;;;;;;;5083454;28;20036;-69
2022/05/26 09:43:18;;;;;;;0.85;0.60;;;;;;;;;;5083337;28;20397;-70
2022/05/26 09:45:50;;;;;;;1.08;0.80;;;;;;;;;;5083707;28;20115;-68
2022/05/26 09:48:17;;;;;;;0.68;0.60;;;;;;;;;;5082880;28;20039;-68
2022/05/26 09:50:49;;;;;;;1.73;0.60;;;;;;;;;;5083355;28;20039;-70
2022/05/26 09:53:28;;;;;;;0.80;0.63;;;;;;;;;;5083451;28;20089;-69
2022/05/26 09:55:55;;;;;;;1.67;0.80;;;;;;;;;;5083884;28;20032;-68
2022/05/26 09:58:29;;;;;;;2.47;1.10;;;;;;;;;;5082570;28;20036;-71
2022/05/26 10:00:57;;;;;;;2.78;0.93;;;;;;;;;;5083644;28;20075;-71
2022/05/26 10:03:36;;;;;;;1.27;0.73;;;;;;;;;;5082890;28;20031;-68
2022/05/26 10:06:23;;;;;;;1.70;0.90;;;;;;;;;;5083044;28;20046;-68
2022/05/26 10:09:06;;;;;;;2.60;1.00;;;;;;;;;;5082304;28;20032;-68
2022/05/26 10:11:50;;;;;;;8.32;0.98;;;;;;;;;;5083291;28;20075;-72
2022/05/26 10:14:16;;;;;;;0.82;0.80;;;;;;;;;;5082635;28;20039;-70
2022/05/26 10:17:20;;;;;;;1.10;0.70;;;;;;;;;;5083449;28;20046;-69
2022/05/26 10:20:10;;;;;;;0.85;0.68;;;;;;;;;;5081759;28;20144;-71
2022/05/26 10:22:47;;;;;;;1.30;0.63;;;;;;;;;;5082846;28;20043;-70
2022/05/26 10:25:30;;;;;;;1.05;0.93;;;;;;;;;;5082474;28;20126;-68
2022/05/26 10:28:02;;;;;;;1.08;0.50;;;;;;;;;;5082805;28;20031;-69
2022/05/26 10:30:46;;;;;;;;;;;;;;;;;;5082670;28;20062;-71
2022/05/26 10:33:56;;;;;;;2.05;0.50;;;;;;;;;;5082123;28;20391;-71
2022/05/26 10:36:36;;;;;;;1.45;0.60;;;;;;;;;;5082767;28;20060;-67
2022/05/26 10:39:21;;;;;;;5.15;0.82;;;;;;;;;;5083281;28;20492;-68
2022/05/26 10:41:51;;;;;;;1.90;0.88;;;;;;;;;;5081919;28;20042;-68
2022/05/26 10:44:29;;;;;;;1.35;0.75;;;;;;;;;;5082137;28;20114;-69
2022/05/26 10:47:18;;;;;;;3.97;0.77;;;;;;;;;;5082690;28;20032;-69
2022/05/26 10:50:09;;;;;;;2.28;0.90;;;;;;;;;;5082821;28;20282;-70
2022/05/26 10:52:40;;;;;;;1.50;0.77;;;;;;;;;;5082093;28;20108;-69
2022/05/26 10:55:12;;;;;;;;;;;;;;;;;;5061509;28;20047;-71
2022/05/26 10:57:53;;;;;;;0.93;0.73;;;;;;;;;;5082678;28;20372;-69
2022/05/26 11:00:27;;;;;;;0.82;0.82;;;;;;;;;;5082318;28;20032;-73
2022/05/26 11:03:13;;;;;;;3.10;0.73;;;;;;;;;;5082493;28;20051;-68
2022/05/26 11:05:46;;;;;;;1.15;0.60;;;;;;;;;;5082319;28;20541;-70
2022/05/26 11:08:17;;;;;;;3.88;0.80;;;;;;;;;;5082235;28;20040;-71
2022/05/26 11:11:09;;;;;;;6.82;0.50;;;;;;;;;;5081982;28;20028;-69
2022/05/26 11:13:41;;;;;;;0.60;0.60;;;;;;;;;;5081991;28;20032;-68
2022/05/26 11:19:32;;;;;;;1.90;0.57;;;;;;;;;;5081938;28;20118;-71
2022/05/26 11:21:59;;;;;;;3.78;0.70;;;;;;;;;;5081831;28;20553;-72
2022/05/26 11:24:25;;;;;;;3.53;0.90;;;;;;;;;;5063335;28;20039;-73
2022/05/26 11:27:05;;;;;;;2.25;0.68;;;;;;;;;;5081500;28;20046;-69
2022/05/26 11:29:37;;;;;;;1.42;0.80;;;;;;;;;;5082727;28;20055;-69
2022/05/26 11:38:09;;;;;;;0.85;0.60;;;;;;;;;;5075647;28;20056;-69
2022/05/26 11:40:58;;;;;;;1.38;0.88;;;;;;;;;;5081964;28;20481;-68
2022/05/26 11:43:27;;;;;;;2.03;0.60;;;;;;;;;;5080867;28;20441;-69
2022/05/26 11:45:53;;;;;;;1.42;0.70;;;;;;;;;;5081168;28;20046;-70
2022/05/26 11:48:31;;;;;;;0.95;0.60;;;;;;;;;;5080753;28;20039;-72
2022/05/26 11:51:01;;;;;;;1.00;0.57;;;;;;;;;;5081832;28;20118;-69
2022/05/26 11:53:29;;;;;;;11.65;0.80;;;;;;;;;;5081222;28;20036;-69
2022/05/26 11:56:04;;;;;;;2.15;0.70;;;;;;;;;;5081583;28;20028;-72
2022/05/26 11:58:44;;;;;;;4.75;0.70;;;;;;;;;;5080742;28;20086;-68
2022/05/26 12:01:22;;;;;;;1.00;0.60;;;;;;;;;;5081295;28;20420;-69
2022/05/26 12:03:54;;;;;;;3.80;0.80;;;;;;;;;;5080541;28;20043;-69
2022/05/26 12:06:37;;;;;;;0.60;0.60;;;;;;;;;;5081144;28;20046;-73
2022/05/26 12:09:12;;;;;;;1.52;0.80;;;;;;;;;;5081647;28;20032;-71
2022/05/26 12:12:03;;;;;;;2.03;0.60;;;;;;;;;;5081152;28;20507;-72
2022/05/26 12:14:47;;;;;;;1.35;0.70;;;;;;;;;;5081116;28;20736;-69
2022/05/26 12:17:35;;;;;;;1.77;0.60;;;;;;;;;;5081130;28;20064;-69
2022/05/26 12:20:09;;;;;;;1.25;0.80;;;;;;;;;;5081079;28;20523;-69
2022/05/26 12:22:41;;;;;;;1.90;0.60;;;;;;;;;;5080689;28;20028;-69
2022/05/26 12:25:18;;;;;;;4.28;0.80;;;;;;;;;;5080044;28;20055;-68
2022/05/26 12:27:55;;;;;;;1.80;0.60;;;;;;;;;;5081101;28;20153;-72
2022/05/26 12:30:41;;;;;;;5.22;1.55;;;;;;;;;;5080630;28;20192;-72
2022/05/26 12:33:19;;;;;;;6.22;1.45;;;;;;;;;;5080150;28;20040;-69
2022/05/26 12:36:00;;;;;;;2.42;0.70;;;;;;;;;;5081076;28;20553;-69
2022/05/26 12:38:49;;;;;;;1.33;0.80;;;;;;;;;;5081272;28;20035;-72
2022/05/26 12:41:29;;;;;;;1.58;0.60;;;;;;;;;;5081000;28;20071;-69
2022/05/26 12:44:01;;;;;;;1.17;0.80;;;;;;;;;;5061420;28;20048;-69
2022/05/26 12:46:50;;;;;;;0.75;0.75;;;;;;;;;;5080762;28;20039;-71
2022/05/26 12:49:33;;;;;;;1.60;0.65;;;;;;;;;;5081018;28;20055;-72
2022/05/26 12:52:19;;;;;;;1.25;0.68;;;;;;;;;;5084962;28;20152;-71
2022/05/26 12:55:22;;;;;;;0.80;0.40;;;;;;;;;;5083309;28;20048;-68
2022/05/26 12:58:01;;;;;;;2.08;0.60;;;;;;;;;;5080030;28;20412;-68
2022/05/26 13:00:43;;;;;;;4.10;0.50;;;;;;;;;;5084716;28;20039;-71
2022/05/26 13:03:13;;;;;;;3.58;0.60;;;;;;;;;;5084912;28;20113;-72
2022/05/26 13:05:46;;;;;;;2.67;0.50;;;;;;;;;;5083140;28;20032;-70
2022/05/26 13:08:19;;;;;;;2.08;0.60;;;;;;;;;;5084821;28;20039;-69
2022/05/26 13:10:48;;;;;;;1.38;0.77;;;;;;;;;;5084614;28;20054;-70
2022/05/26 13:13:35;;;;;;;0.88;0.47;;;;;;;;;;5084375;28;20409;-71
2022/05/26 13:16:30;;;;;;;0.75;0.50;;;;;;;;;;5083430;28;20039;-70
2022/05/26 13:19:07;;;;;;;1.98;0.60;;;;;;;;;;5047098;28;20044;-71
2022/05/26 13:21:33;;;;;;;0.57;0.50;;;;;;;;;;5084074;28;20040;-70
2022/05/26 13:23:58;;;;;;;0.95;0.55;;;;;;;;;;5084053;28;20035;-70
2022/05/26 13:26:24;;;;;;;0.65;0.60;;;;;;;;;;5084234;28;20466;-71
2022/05/26 13:28:56;;;;;;;1.77;0.70;;;;;;;;;;5066578;28;20098;-71
2022/05/26 13:34:12;;;;;;;5.53;0.60;;;;;;;;;;5081254;28;20071;-74
2022/05/26 13:36:42;;;;;;;1.48;0.50;;;;;;;;;;5084333;28;20039;-73
2022/05/26 13:39:12;;;;;;;4.40;0.60;;;;;;;;;;5083186;28;20039;-73
2022/05/26 13:41:40;;;;;;;1.42;0.35;;;;;;;;;;5083956;28;20480;-72
2022/05/26 13:44:09;;;;;;;0.80;0.70;;;;;;;;;;5083565;28;20958;-73
2022/05/26 13:46:39;;;;;;;2.10;0.60;;;;;;;;;;5084020;28;20129;-72
2022/05/26 13:49:32;;;;;;;2.05;0.60;;;;;;;;;;5082753;28;20032;-72
2022/05/26 13:52:00;;;;;;;0.95;0.73;;;;;;;;;;5083413;28;20028;-72
2022/05/26 13:54:30;;;;;;;0.52;0.45;;;;;;;;;;5064987;28;20043;-72
2022/05/26 13:57:04;;;;;;;1.00;0.50;;;;;;;;;;5083656;28;21047;-73
2022/05/26 13:59:35;;;;;;;3.03;0.60;;;;;;;;;;5083048;28;20119;-72
2022/05/26 14:02:18;;;;;;;0.68;0.60;;;;;;;;;;5082506;28;20511;-72
2022/05/26 14:04:59;;;;;;;2.05;0.60;;;;;;;;;;5082794;28;20139;-72
2022/05/26 14:07:37;;;;;;;0.80;0.60;;;;;;;;;;5083185;28;20589;-72
2022/05/26 14:10:07;;;;;;;2.38;0.75;;;;;;;;;;5078085;28;20048;-73
2022/05/26 14:12:33;;;;;;;3.15;0.70;;;;;;;;;;5080616;28;20046;-73
2022/05/26 14:14:58;;;;;;;0.50;0.50;;;;;;;;;;5079245;28;20032;-72
2022/05/26 14:17:28;;;;;;;0.95;0.60;;;;;;;;;;5080787;28;20135;-72
2022/05/26 14:19:58;;;;;;;1.42;0.50;;;;;;;;;;5079810;28;20063;-73
2022/05/26 14:22:26;;;;;;;1.35;0.50;;;;;;;;;;5080205;28;20060;-73
2022/05/26 14:24:53;;;;;;;1.50;0.60;;;;;;;;;;5080527;28;20044;-73
2022/05/26 14:27:27;;;;;;;0.73;0.60;;;;;;;;;;5081416;28;20078;-72
2022/05/26 14:29:59;;;;;;;1.48;0.50;;;;;;;;;;5080180;28;20051;-71
2022/05/26 14:32:31;;;;;;;2.50;1.33;;;;;;;;;;5081251;28;20603;-70
2022/05/26 14:34:59;;;;;;;0.80;0.60;;;;;;;;;;5080872;28;20080;-71
2022/05/26 14:37:26;;;;;;;0.95;0.60;;;;;;;;;;5082452;28;20476;-72
2022/05/26 14:39:53;;;;;;;2.47;0.60;;;;;;;;;;5081435;28;20053;-72
2022/05/26 14:42:38;;;;;;;1.95;0.90;;;;;;;;;;5081985;28;20146;-71
2022/05/26 14:45:08;;;;;;;1.27;0.47;;;;;;;;;;5080152;28;20481;-72
2022/05/26 14:47:34;;;;;;;1.00;0.60;;;;;;;;;;5080906;28;20040;-71
2022/05/26 14:50:00;;;;;;;2.25;0.50;;;;;;;;;;5063734;28;20042;-71
2022/05/26 14:52:28;;;;;;;1.17;0.55;;;;;;;;;;5081637;28;20515;-71
2022/05/26 14:57:39;;;;;;;1.08;0.75;;;;;;;;;;5081309;28;20078;-71
2022/05/26 15:00:15;;;;;;;1.73;0.65;;;;;;;;;;5081690;28;20086;-71
2022/05/26 15:02:41;;;;;;;1.52;0.70;;;;;;;;;;5079932;28;20070;-72
2022/05/26 15:05:09;;;;;;;2.92;0.55;;;;;;;;;;5076671;28;20036;-71
2022/05/26 15:07:36;;;;;;;1.00;0.50;;;;;;;;;;5079919;28;20040;-72
2022/05/26 15:10:03;;;;;;;0.77;0.50;;;;;;;;;;5080375;28;20043;-71
2022/05/26 15:12:28;;;;;;;2.33;0.73;;;;;;;;;;5079787;28;20756;-72
2022/05/26 15:14:54;;;;;;;2.35;0.70;;;;;;;;;;5080101;28;20035;-71
2022/05/26 15:17:21;;;;;;;1.85;0.80;;;;;;;;;;5079924;28;20511;-71
2022/05/26 15:19:51;;;;;;;1.23;1.13;;;;;;;;;;5080748;28;20036;-71
2022/05/26 15:22:18;;;;;;;6.32;1.10;;;;;;;;;;5081451;28;20046;-71
2022/05/26 15:24:45;;;;;;;3.45;0.50;;;;;;;;;;5080189;28;20085;-71
2022/05/26 15:27:13;;;;;;;0.77;0.65;;;;;;;;;;5080106;28;20040;-71
2022/05/26 15:29:39;;;;;;;3.60;0.60;;;;;;;;;;5080796;28;20031;-70
2022/05/26 15:32:07;;;;;;;0.82;0.70;;;;;;;;;;5080110;28;20505;-71
2022/05/26 15:34:34;;;;;;;2.10;0.70;;;;;;;;;;5079428;28;20055;-70
2022/05/26 15:37:04;;;;;;;1.23;0.63;;;;;;;;;;5079789;28;21064;-70
2022/05/26 15:39:29;;;;;;;2.53;0.70;;;;;;;;;;5079878;28;20114;-70
2022/05/26 15:41:55;;;;;;;1.33;0.40;;;;;;;;;;5080930;28;20039;-70
2022/05/26 15:44:22;;;;;;;1.92;0.68;;;;;;;;;;5080704;28;20404;-70
2022/05/26 15:46:50;;;;;;;3.40;1.00;;;;;;;;;;5080538;28;20035;-71
2022/05/26 15:49:18;;;;;;;2.85;0.60;;;;;;;;;;5080027;28;20079;-71
2022/05/26 15:51:47;;;;;;;1.20;0.60;;;;;;;;;;5080708;28;20097;-71
2022/05/26 15:54:16;;;;;;;1.08;0.93;;;;;;;;;;5080880;28;20043;-71
2022/05/26 15:56:44;;;;;;;5.32;1.92;;;;;;;;;;5081401;28;20092;-70